createdAt,value
2023-01-22T00:01:42.704Z,2.06
2023-01-22T00:04:12.417Z,2.04
2023-01-22T00:06:40.747Z,2.02
2023-01-22T00:09:09.575Z,2.02
2023-01-22T00:11:38.349Z,2.03
2023-01-22T00:14:07.357Z,2.02
2023-01-22T00:16:36.420Z,2.01
2023-01-22T00:19:06.700Z,1.99
2023-01-22T00:21:35.716Z,2.03
2023-01-22T00:24:04.619Z,2.07
2023-01-22T00:26:33.406Z,2.03
2023-01-22T00:29:02.067Z,1.95
2023-01-22T00:31:30.880Z,2.11
2023-01-22T00:33:59.682Z,2.09
2023-01-22T00:36:30.066Z,2.05
2023-01-22T00:38:59.064Z,2.04
2023-01-22T00:41:27.812Z,2.05
2023-01-22T00:43:56.661Z,2.06
2023-01-22T00:46:26.520Z,2.07
2023-01-22T00:48:55.366Z,2.07
2023-01-22T00:51:24.546Z,2.10
2023-01-22T00:53:55.088Z,2.12
2023-01-22T00:56:24.871Z,2.13
2023-01-22T00:58:53.664Z,2.15
2023-01-22T01:01:22.541Z,2.17
2023-01-22T01:03:51.288Z,2.17
2023-01-22T01:06:22.619Z,2.17
2023-01-22T01:08:51.650Z,2.13
2023-01-22T01:11:24.110Z,2.13
2023-01-22T01:13:53.880Z,2.03
2023-01-22T01:16:25.000Z,1.89
2023-01-22T01:18:54.220Z,2.13
2023-01-22T01:21:22.920Z,2.12
2023-01-22T01:23:51.996Z,2.13
2023-01-22T01:26:22.208Z,2.15
2023-01-22T01:28:53.461Z,2.13
2023-01-22T01:31:26.598Z,2.16
2023-01-22T01:33:59.338Z,2.14
2023-01-22T01:36:47.531Z,2.12
2023-01-22T01:39:18.231Z,2.10
2023-01-22T01:41:50.593Z,2.14
2023-01-22T01:44:22.012Z,2.16
2023-01-22T01:46:56.006Z,2.20
2023-01-22T01:49:31.267Z,2.22
2023-01-22T01:52:03.022Z,2.22
2023-01-22T01:54:33.333Z,2.23
2023-01-22T01:57:10.264Z,2.24
2023-01-22T01:59:40.668Z,2.21
2023-01-22T02:02:09.471Z,2.18
2023-01-22T02:04:38.149Z,2.21
2023-01-22T02:07:07.555Z,2.22
2023-01-22T02:09:36.744Z,2.23
2023-01-22T02:12:07.761Z,2.23
2023-01-22T02:14:40.900Z,2.18
2023-01-22T02:17:12.201Z,2.21
2023-01-22T02:19:41.423Z,2.22
2023-01-22T02:22:15.300Z,2.22
2023-01-22T02:24:44.148Z,2.22
2023-01-22T02:27:13.808Z,2.25
2023-01-22T02:29:42.929Z,2.23
2023-01-22T02:32:13.159Z,2.23
2023-01-22T02:34:41.990Z,2.24
2023-01-22T02:37:13.281Z,2.28
2023-01-22T02:39:42.343Z,2.29
2023-01-22T02:42:11.158Z,2.33
2023-01-22T02:44:42.727Z,2.34
2023-01-22T02:47:11.502Z,2.34
2023-01-22T02:49:40.205Z,2.35
2023-01-22T02:52:09.109Z,2.36
2023-01-22T02:54:39.305Z,2.37
2023-01-22T02:57:08.159Z,2.37
2023-01-22T02:59:36.961Z,2.38
2023-01-22T03:02:05.921Z,2.35
2023-01-22T03:04:34.579Z,2.34
2023-01-22T03:07:05.518Z,2.35
2023-01-22T03:09:34.276Z,2.33
2023-01-22T03:12:06.150Z,2.32
2023-01-22T03:14:47.751Z,2.31
2023-01-22T03:17:27.707Z,2.30
2023-01-22T03:20:06.561Z,2.30
2023-01-22T03:22:35.381Z,2.31
2023-01-22T03:25:04.210Z,2.33
2023-01-22T03:27:35.591Z,2.34
2023-01-22T03:30:05.047Z,2.36
2023-01-22T03:32:36.592Z,2.37
2023-01-22T03:35:05.981Z,2.38
2023-01-22T03:37:49.928Z,2.38
2023-01-22T03:40:19.689Z,2.37
2023-01-22T03:42:50.034Z,2.36
2023-01-22T03:45:18.898Z,2.35
2023-01-22T03:47:47.651Z,2.33
2023-01-22T03:50:25.437Z,2.29
2023-01-22T03:52:54.317Z,2.28
2023-01-22T03:55:23.069Z,2.27
2023-01-22T03:57:53.423Z,2.26
2023-01-22T04:00:22.768Z,2.23
2023-01-22T04:02:54.049Z,2.22
2023-01-22T04:05:27.748Z,2.11
2023-01-22T04:07:56.669Z,2.04
2023-01-22T04:10:29.414Z,1.98
2023-01-22T04:12:59.775Z,1.93
2023-01-22T04:15:29.336Z,1.87
2023-01-22T04:17:59.873Z,1.93
2023-01-22T04:20:39.769Z,1.89
2023-01-22T04:23:19.919Z,1.86
2023-01-22T04:25:50.723Z,1.85
2023-01-22T04:28:22.301Z,1.85
2023-01-22T04:30:57.373Z,1.80
2023-01-22T04:33:46.835Z,1.86
2023-01-22T04:36:23.522Z,1.85
2023-01-22T04:38:52.364Z,1.84
2023-01-22T04:41:21.563Z,1.81
2023-01-22T04:43:52.269Z,1.80
2023-01-22T04:46:24.461Z,1.79
2023-01-22T04:48:54.543Z,1.79
2023-01-22T04:51:23.496Z,1.77
2023-01-22T04:53:52.425Z,1.77
2023-01-22T04:56:21.265Z,1.77
2023-01-22T04:58:52.609Z,1.78
2023-01-22T05:01:22.820Z,1.77
2023-01-22T05:03:52.079Z,1.77
2023-01-22T05:06:22.212Z,1.74
2023-01-22T05:08:51.102Z,1.72
2023-01-22T05:11:19.732Z,1.70
2023-01-22T05:13:57.379Z,1.73
2023-01-22T05:16:26.329Z,1.72
2023-01-22T05:18:55.120Z,1.71
2023-01-22T05:21:23.994Z,1.70
2023-01-22T05:23:53.281Z,1.68
2023-01-22T05:26:22.289Z,1.65
2023-01-22T05:28:58.510Z,1.67
2023-01-22T05:31:40.703Z,1.59
2023-01-22T05:34:17.407Z,1.69
2023-01-22T05:36:46.640Z,1.70
2023-01-22T05:39:19.237Z,1.68
2023-01-22T05:41:48.790Z,1.68
2023-01-22T05:44:19.061Z,1.65
2023-01-22T05:46:53.372Z,1.64
2023-01-22T05:49:33.141Z,1.61
2023-01-22T05:52:01.894Z,1.62
2023-01-22T05:54:30.771Z,1.59
2023-01-22T05:57:01.784Z,1.61
2023-01-22T05:59:32.613Z,1.59
2023-01-22T06:02:05.280Z,1.47
2023-01-22T06:04:36.425Z,1.56
2023-01-22T06:07:13.177Z,1.56
2023-01-22T06:09:42.129Z,1.59
2023-01-22T06:12:11.142Z,1.56
2023-01-22T06:14:41.392Z,1.54
2023-01-22T06:17:10.373Z,1.60
2023-01-22T06:19:47.482Z,1.56
2023-01-22T06:22:20.102Z,1.62
2023-01-22T06:24:53.753Z,1.62
2023-01-22T06:27:25.993Z,1.60
2023-01-22T06:30:01.490Z,1.59
2023-01-22T06:32:30.791Z,1.59
2023-01-22T06:35:01.773Z,1.51
2023-01-22T06:37:31.209Z,1.49
2023-01-22T06:40:00.900Z,1.53
2023-01-22T06:42:42.498Z,1.55
2023-01-22T06:45:13.426Z,1.56
2023-01-22T06:47:48.165Z,1.54
2023-01-22T06:50:18.074Z,1.60
2023-01-22T06:52:47.323Z,1.59
2023-01-22T06:55:17.974Z,1.62
2023-01-22T06:57:47.514Z,1.59
2023-01-22T07:00:19.533Z,1.59
2023-01-22T07:02:48.834Z,1.61
2023-01-22T07:05:17.585Z,1.64
2023-01-22T07:07:47.965Z,1.60
2023-01-22T07:10:17.875Z,1.64
2023-01-22T07:12:46.861Z,1.65
2023-01-22T07:15:16.605Z,1.66
2023-01-22T07:17:51.516Z,1.67
2023-01-22T07:20:24.043Z,1.68
2023-01-22T07:22:53.568Z,1.66
2023-01-22T07:25:22.471Z,1.70
2023-01-22T07:27:51.184Z,1.70
2023-01-22T07:30:20.773Z,1.71
2023-01-22T07:32:51.251Z,1.71
2023-01-22T07:35:20.940Z,1.75
2023-01-22T07:37:53.791Z,1.77
2023-01-22T07:40:25.065Z,1.80
2023-01-22T07:42:54.541Z,1.83
2023-01-22T07:45:26.754Z,1.82
2023-01-22T07:47:59.863Z,1.89
2023-01-22T07:50:30.908Z,1.93
2023-01-22T07:53:00.837Z,1.93
2023-01-22T07:55:31.521Z,1.82
2023-01-22T07:58:01.314Z,1.95
2023-01-22T08:00:30.066Z,1.96
2023-01-22T08:03:00.345Z,1.97
2023-01-22T08:05:29.433Z,1.98
2023-01-22T08:07:58.187Z,2.01
2023-01-22T08:10:26.954Z,2.04
2023-01-22T08:12:55.751Z,2.01
2023-01-22T08:15:24.975Z,2.02
2023-01-22T08:17:53.687Z,2.00
2023-01-22T08:20:24.420Z,2.01
2023-01-22T08:22:58.322Z,2.00
2023-01-22T08:25:27.387Z,1.83
2023-01-22T08:27:56.486Z,2.01
2023-01-22T08:30:25.276Z,2.02
2023-01-22T08:32:55.357Z,2.04
2023-01-22T08:35:25.605Z,1.98
2023-01-22T08:37:54.362Z,2.11
2023-01-22T08:40:23.105Z,2.13
2023-01-22T08:42:54.980Z,2.17
2023-01-22T08:45:23.924Z,2.18
2023-01-22T08:47:58.411Z,2.14
2023-01-22T08:50:29.873Z,2.09
2023-01-22T08:52:59.188Z,2.09
2023-01-22T08:55:28.239Z,2.14
2023-01-22T08:57:57.784Z,2.19
2023-01-22T09:00:27.894Z,2.21
2023-01-22T09:03:00.252Z,2.21
2023-01-22T09:05:30.527Z,2.23
2023-01-22T09:07:59.644Z,2.21
2023-01-22T09:10:28.425Z,2.23
2023-01-22T09:13:00.813Z,2.27
2023-01-22T09:15:29.780Z,2.31
2023-01-22T09:18:00.445Z,2.35
2023-01-22T09:20:30.681Z,2.38
2023-01-22T09:22:59.520Z,2.41
2023-01-22T09:25:29.653Z,2.41
2023-01-22T09:28:00.504Z,2.44
2023-01-22T09:30:32.656Z,2.46
2023-01-22T09:33:01.374Z,2.46
2023-01-22T09:35:31.570Z,2.46
2023-01-22T09:38:01.631Z,2.46
2023-01-22T09:40:36.086Z,2.49
2023-01-22T09:43:07.337Z,2.49
2023-01-22T09:45:40.129Z,2.49
2023-01-22T09:48:17.904Z,2.51
2023-01-22T09:50:51.128Z,2.49
2023-01-22T09:53:22.254Z,2.52
2023-01-22T09:55:55.824Z,2.50
2023-01-22T09:58:27.240Z,2.44
2023-01-22T10:01:00.405Z,2.46
2023-01-22T10:03:35.495Z,2.45
2023-01-22T10:06:12.772Z,2.49
2023-01-22T10:08:53.623Z,2.48
2023-01-22T10:11:22.534Z,2.53
2023-01-22T10:13:52.893Z,2.55
2023-01-22T10:16:21.999Z,2.53
2023-01-22T10:18:56.782Z,2.59
2023-01-22T10:21:31.225Z,2.61
2023-01-22T10:24:00.858Z,2.61
2023-01-22T10:26:38.803Z,2.60
2023-01-22T10:29:10.154Z,2.63
2023-01-22T10:31:41.333Z,2.62
2023-01-22T10:34:15.825Z,2.63
2023-01-22T10:36:52.784Z,2.64
2023-01-22T10:39:22.132Z,2.63
2023-01-22T10:41:51.205Z,2.67
2023-01-22T10:44:23.560Z,2.68
2023-01-22T10:46:53.870Z,2.68
2023-01-22T10:49:24.573Z,2.70
2023-01-22T10:51:57.104Z,2.72
2023-01-22T10:54:32.011Z,2.75
2023-01-22T10:57:19.150Z,2.72
2023-01-22T10:59:50.912Z,2.69
2023-01-22T11:02:24.520Z,2.67
2023-01-22T11:04:54.334Z,2.60
2023-01-22T11:07:25.625Z,2.70
2023-01-22T11:10:01.373Z,2.72
2023-01-22T11:12:32.494Z,2.72
2023-01-22T11:15:07.935Z,2.73
2023-01-22T11:17:41.557Z,2.75
2023-01-22T11:20:21.441Z,2.77
2023-01-22T11:23:17.134Z,2.80
2023-01-22T11:25:50.695Z,2.84
2023-01-22T11:28:32.891Z,2.86
2023-01-22T11:31:18.754Z,2.88
2023-01-22T11:34:08.627Z,2.92
2023-01-22T11:36:44.584Z,2.97
2023-01-22T11:39:23.441Z,2.99
2023-01-22T11:42:04.595Z,2.95
2023-01-22T11:44:57.078Z,3.01
2023-01-22T11:47:44.487Z,3.03
2023-01-22T11:50:24.228Z,3.05
2023-01-22T11:53:01.402Z,3.05
2023-01-22T11:55:49.252Z,3.05
2023-01-22T11:58:27.125Z,3.07
2023-01-22T12:01:08.022Z,3.09
2023-01-22T12:03:59.768Z,3.06
2023-01-22T12:06:50.327Z,3.08
2023-01-22T12:09:25.247Z,3.08
2023-01-22T12:12:13.817Z,3.12
2023-01-22T12:15:00.177Z,3.16
2023-01-22T12:17:42.843Z,3.13
2023-01-22T12:20:31.973Z,3.23
2023-01-22T12:23:06.838Z,3.28
2023-01-22T12:25:42.234Z,3.32
2023-01-22T12:28:18.591Z,3.39
2023-01-22T12:30:58.359Z,3.42
2023-01-22T12:33:30.861Z,3.44
2023-01-22T12:36:04.270Z,3.45
2023-01-22T12:38:43.175Z,3.49
2023-01-22T12:41:26.136Z,3.45
2023-01-22T12:43:59.099Z,3.54
2023-01-22T12:46:34.831Z,3.55
2023-01-22T12:49:08.527Z,3.59
2023-01-22T12:51:41.528Z,3.61
2023-01-22T12:54:19.648Z,3.65
2023-01-22T12:56:49.178Z,3.63
2023-01-22T12:59:34.792Z,3.68
2023-01-22T13:02:07.985Z,3.68
2023-01-22T13:04:36.768Z,3.70
2023-01-22T13:07:08.106Z,3.70
2023-01-22T13:09:38.714Z,3.70
2023-01-22T13:12:11.445Z,3.71
2023-01-22T13:14:43.732Z,3.71
2023-01-22T13:17:21.300Z,3.74
2023-01-22T13:19:51.975Z,3.80
2023-01-22T13:22:23.912Z,3.54
2023-01-22T13:24:55.397Z,3.89
2023-01-22T13:27:27.700Z,3.94
2023-01-22T13:30:09.848Z,3.92
2023-01-22T13:32:38.571Z,3.91
2023-01-22T13:35:08.268Z,3.85
2023-01-22T13:37:39.102Z,3.93
2023-01-22T13:40:16.591Z,3.92
2023-01-22T13:42:47.434Z,3.92
2023-01-22T13:45:23.287Z,3.90
2023-01-22T13:47:57.371Z,3.91
2023-01-22T13:50:29.071Z,3.90
2023-01-22T13:52:59.118Z,3.90
2023-01-22T13:55:29.715Z,3.93
2023-01-22T13:58:02.198Z,3.96
2023-01-22T14:00:34.396Z,3.98
2023-01-22T14:03:03.935Z,3.99
2023-01-22T14:05:34.682Z,4.00
2023-01-22T14:08:08.359Z,3.99
2023-01-22T14:10:37.453Z,3.99
2023-01-22T14:13:08.069Z,3.78
2023-01-22T14:15:39.735Z,3.99
2023-01-22T14:18:11.141Z,3.97
2023-01-22T14:20:41.644Z,3.78
2023-01-22T14:23:10.349Z,3.98
2023-01-22T14:25:39.920Z,3.79
2023-01-22T14:28:08.505Z,3.98
2023-01-22T14:30:38.831Z,3.99
2023-01-22T14:33:08.448Z,3.97
2023-01-22T14:35:37.242Z,3.99
2023-01-22T14:38:06.023Z,4.00
2023-01-22T14:40:35.136Z,4.03
2023-01-22T14:43:04.714Z,4.02
2023-01-22T14:45:33.588Z,4.04
2023-01-22T14:48:04.697Z,4.03
2023-01-22T14:50:34.219Z,4.02
2023-01-22T14:53:02.969Z,4.02
2023-01-22T14:55:31.696Z,4.02
2023-01-22T14:58:00.557Z,4.01
2023-01-22T15:00:30.823Z,4.02
2023-01-22T15:03:00.668Z,3.94
2023-01-22T15:05:30.854Z,4.00
2023-01-22T15:08:01.625Z,3.99
2023-01-22T15:10:30.602Z,3.99
2023-01-22T15:12:59.227Z,3.98
2023-01-22T15:15:28.927Z,3.97
2023-01-22T15:17:58.593Z,3.96
2023-01-22T15:20:27.116Z,3.94
2023-01-22T15:22:57.353Z,3.91
2023-01-22T15:25:27.675Z,3.91
2023-01-22T15:27:56.372Z,3.90
2023-01-22T15:30:25.298Z,3.90
2023-01-22T15:32:54.287Z,3.91
2023-01-22T15:35:22.924Z,3.90
2023-01-22T15:37:51.796Z,3.90
2023-01-22T15:40:22.201Z,3.90
2023-01-22T15:42:51.043Z,3.89
2023-01-22T15:45:19.797Z,3.88
2023-01-22T15:47:49.152Z,3.88
2023-01-22T15:50:20.753Z,3.87
2023-01-22T15:52:54.094Z,3.87
2023-01-22T15:55:24.284Z,3.87
2023-01-22T15:57:52.976Z,3.87
2023-01-22T16:00:22.820Z,3.85
2023-01-22T16:02:51.638Z,3.86
2023-01-22T16:05:21.594Z,3.85
2023-01-22T16:07:52.567Z,3.84
2023-01-22T16:10:23.624Z,3.84
2023-01-22T16:12:52.326Z,3.83
2023-01-22T16:15:21.049Z,3.81
2023-01-22T16:17:49.732Z,3.81
2023-01-22T16:20:20.109Z,3.82
2023-01-22T16:22:50.001Z,3.80
2023-01-22T16:25:18.831Z,3.80
2023-01-22T16:27:49.088Z,3.80
2023-01-22T16:30:18.408Z,3.80
2023-01-22T16:32:47.261Z,3.79
2023-01-22T16:35:18.644Z,3.78
2023-01-22T16:37:47.467Z,3.79
2023-01-22T16:40:18.166Z,3.78
2023-01-22T16:43:03.231Z,3.78
2023-01-22T16:45:32.109Z,3.77
2023-01-22T16:48:00.722Z,3.75
2023-01-22T16:50:29.769Z,3.74
2023-01-22T16:52:58.735Z,3.72
2023-01-22T16:55:28.237Z,3.72
2023-01-22T16:58:00.449Z,3.70
2023-01-22T17:00:29.260Z,3.71
2023-01-22T17:02:59.789Z,3.71
2023-01-22T17:05:28.596Z,3.69
2023-01-22T17:07:57.325Z,3.69
2023-01-22T17:10:26.157Z,3.66
2023-01-22T17:12:54.877Z,3.63
2023-01-22T17:15:25.208Z,3.63
2023-01-22T17:17:54.027Z,3.60
2023-01-22T17:20:22.907Z,3.58
2023-01-22T17:22:51.792Z,3.55
2023-01-22T17:25:21.658Z,3.50
2023-01-22T17:27:50.460Z,3.49
2023-01-22T17:30:19.630Z,3.47
2023-01-22T17:32:50.733Z,3.45
2023-01-22T17:35:20.030Z,3.43
2023-01-22T17:37:48.779Z,3.45
2023-01-22T17:40:17.651Z,3.40
2023-01-22T17:42:46.309Z,3.42
2023-01-22T17:45:15.137Z,3.41
2023-01-22T17:47:45.731Z,3.39
2023-01-22T17:50:16.442Z,3.35
2023-01-22T17:52:45.310Z,3.32
2023-01-22T17:55:14.051Z,3.28
2023-01-22T17:57:43.221Z,3.21
2023-01-22T18:00:13.048Z,3.15
2023-01-22T18:02:42.018Z,3.06
2023-01-22T18:05:11.330Z,3.03
2023-01-22T18:07:41.913Z,2.96
2023-01-22T18:10:13.929Z,2.90
2023-01-22T18:12:44.543Z,2.80
2023-01-22T18:15:13.621Z,2.71
2023-01-22T18:17:42.197Z,2.69
2023-01-22T18:20:12.263Z,2.66
2023-01-22T18:22:42.137Z,2.59
2023-01-22T18:25:11.329Z,2.48
2023-01-22T18:27:39.965Z,2.46
2023-01-22T18:30:12.217Z,2.40
2023-01-22T18:32:40.938Z,2.37
2023-01-22T18:35:10.783Z,2.31
2023-01-22T18:37:41.713Z,2.29
2023-01-22T18:40:11.717Z,2.27
2023-01-22T18:42:40.443Z,2.18
2023-01-22T18:45:10.527Z,2.13
2023-01-22T18:47:39.416Z,2.09
2023-01-22T18:50:10.295Z,2.05
2023-01-22T18:52:39.147Z,2.00
2023-01-22T18:55:10.354Z,1.99
2023-01-22T18:57:43.018Z,1.96
2023-01-22T19:00:13.977Z,1.92
2023-01-22T19:02:43.402Z,1.90
2023-01-22T19:05:12.157Z,1.88
2023-01-22T19:07:40.959Z,1.88
2023-01-22T19:10:11.550Z,1.89
2023-01-22T19:12:40.340Z,1.94
2023-01-22T19:15:10.641Z,1.99
2023-01-22T19:17:39.904Z,2.01
2023-01-22T19:20:11.653Z,2.06
2023-01-22T19:22:40.398Z,2.09
2023-01-22T19:25:11.665Z,2.07
2023-01-22T19:27:40.487Z,2.07
2023-01-22T19:30:10.819Z,2.10
2023-01-22T19:32:39.697Z,2.10
2023-01-22T19:35:10.181Z,2.13
2023-01-22T19:37:38.902Z,2.12
2023-01-22T19:40:09.157Z,2.12
2023-01-22T19:42:42.299Z,2.13
2023-01-22T19:45:11.404Z,2.13
2023-01-22T19:47:40.000Z,2.13
2023-01-22T19:50:10.349Z,2.14
2023-01-22T19:52:39.054Z,2.17
2023-01-22T19:55:08.278Z,2.17
2023-01-22T19:57:38.464Z,2.17
2023-01-22T20:00:09.479Z,2.16
2023-01-22T20:02:38.412Z,2.10
2023-01-22T20:05:08.042Z,2.20
2023-01-22T20:07:36.958Z,2.25
2023-01-22T20:10:06.435Z,2.31
2023-01-22T20:12:35.139Z,2.34
2023-01-22T20:15:05.699Z,2.37
2023-01-22T20:17:34.359Z,2.38
2023-01-22T20:20:02.946Z,2.39
2023-01-22T20:22:31.761Z,2.41
2023-01-22T20:25:00.841Z,2.43
2023-01-22T20:27:29.943Z,2.44
2023-01-22T20:29:58.659Z,2.46
2023-01-22T20:32:30.607Z,2.44
2023-01-22T20:34:59.585Z,2.44
2023-01-22T20:37:28.288Z,2.45
2023-01-22T20:39:57.500Z,2.46
2023-01-22T20:42:28.538Z,2.46
2023-01-22T20:44:58.649Z,2.48
2023-01-22T20:47:28.797Z,2.48
2023-01-22T20:49:57.446Z,2.42
2023-01-22T20:52:26.305Z,2.34
2023-01-22T20:55:01.689Z,2.29
2023-01-22T20:57:31.882Z,2.24
2023-01-22T21:00:00.631Z,2.21
2023-01-22T21:02:31.398Z,2.18
2023-01-22T21:05:00.329Z,2.16
2023-01-22T21:07:29.121Z,2.15
2023-01-22T21:09:57.850Z,2.09
2023-01-22T21:12:27.594Z,2.01
2023-01-22T21:14:57.324Z,1.95
2023-01-22T21:17:25.767Z,1.92
2023-01-22T21:19:56.329Z,1.85
2023-01-22T21:22:25.122Z,1.76
2023-01-22T21:24:53.903Z,1.69
2023-01-22T21:27:22.759Z,1.66
2023-01-22T21:29:51.999Z,1.64
2023-01-22T21:32:20.842Z,1.64
2023-01-22T21:34:49.652Z,1.61
2023-01-22T21:37:20.441Z,1.52
2023-01-22T21:39:49.454Z,1.49
2023-01-22T21:42:28.163Z,1.45
2023-01-22T21:45:06.679Z,1.42
2023-01-22T21:47:35.520Z,1.38
2023-01-22T21:50:04.178Z,1.39
2023-01-22T21:52:34.601Z,1.38
2023-01-22T21:55:03.431Z,1.37
2023-01-22T21:57:32.117Z,1.33
2023-01-22T22:00:00.928Z,1.28
2023-01-22T22:02:29.684Z,1.24
2023-01-22T22:05:00.190Z,1.23
2023-01-22T22:07:29.001Z,1.21
2023-01-22T22:09:59.488Z,1.16
2023-01-22T22:12:31.559Z,1.12
2023-01-22T22:15:00.328Z,1.08
2023-01-22T22:17:29.059Z,1.09
2023-01-22T22:19:57.764Z,1.06
2023-01-22T22:22:26.891Z,1.04
2023-01-22T22:24:55.741Z,1.03
2023-01-22T22:27:27.793Z,1.00
2023-01-22T22:29:56.911Z,0.99
2023-01-22T22:32:25.656Z,0.93
2023-01-22T22:34:55.440Z,0.88
2023-01-22T22:37:24.209Z,0.85
2023-01-22T22:39:53.049Z,0.83
2023-01-22T22:42:21.773Z,0.83
2023-01-22T22:44:52.043Z,0.81
2023-01-22T22:47:20.797Z,0.79
2023-01-22T22:49:49.518Z,0.78
2023-01-22T22:52:18.962Z,0.76
2023-01-22T22:54:47.811Z,0.76
2023-01-22T22:57:16.641Z,0.78
2023-01-22T22:59:45.333Z,0.74
2023-01-22T23:02:15.800Z,0.73
2023-01-22T23:04:44.686Z,0.70
2023-01-22T23:07:13.456Z,0.73
2023-01-22T23:09:42.283Z,0.74
2023-01-22T23:12:10.959Z,0.71
2023-01-22T23:14:39.753Z,0.72
2023-01-22T23:17:08.465Z,0.71
2023-01-22T23:19:38.919Z,0.74
2023-01-22T23:22:08.001Z,0.75
2023-01-22T23:24:36.862Z,0.78
2023-01-22T23:27:05.878Z,0.82
2023-01-22T23:29:34.692Z,0.85
2023-01-22T23:32:03.461Z,0.86
2023-01-22T23:34:32.287Z,0.85
2023-01-22T23:37:02.414Z,0.80
2023-01-22T23:39:31.187Z,0.84
2023-01-22T23:41:59.899Z,0.80
2023-01-22T23:44:28.722Z,0.81
2023-01-22T23:46:57.467Z,0.90
2023-01-22T23:49:26.272Z,0.93
2023-01-22T23:51:55.049Z,0.99
2023-01-22T23:54:25.310Z,1.04
2023-01-22T23:56:54.252Z,0.96
2023-01-22T23:59:23.708Z,1.02
